Time;durP1;ratioP1;P1;durP2;ratioP2;P2;SDS_P1;SDS_P2;PMS_P1;PMS_P2;Temp;Humidity;BMP_temperature;BMP_pressure;BME280_temperature;BME280_humidity;BME280_pressure;Samples;Min_cycle;Max_cycle;Signal;HPM_P1;HPM_P2
2023/07/01 00:01:17;;;;;;;1.13;0.87;;;28.60;99.90;;;;;;5029900;28;20235;-94
2023/07/01 00:03:50;;;;;;;2.33;1.20;;;28.50;99.90;;;;;;5034821;28;20600;-95
2023/07/01 00:06:22;;;;;;;3.03;0.88;;;28.40;99.90;;;;;;5030566;28;20240;-95
2023/07/01 00:08:54;;;;;;;3.17;1.00;;;28.00;99.90;;;;;;5034321;28;20228;-95
2023/07/01 00:11:26;;;;;;;3.70;1.20;;;27.70;99.90;;;;;;5032227;28;20227;-94
2023/07/01 00:13:58;;;;;;;1.20;1.00;;;27.60;99.90;;;;;;5021583;28;20201;-96
2023/07/01 00:16:31;;;;;;;1.20;0.80;;;27.60;99.90;;;;;;5026032;28;20236;-95
2023/07/01 00:19:06;;;;;;;0.83;0.83;;;27.50;99.90;;;;;;5018622;28;20199;-96
2023/07/01 00:21:38;;;;;;;1.67;1.00;;;27.60;99.90;;;;;;5030189;28;20224;-95
2023/07/01 00:24:10;;;;;;;4.57;1.00;;;27.70;99.90;;;;;;5034602;28;20295;-95
2023/07/01 00:26:42;;;;;;;1.30;0.90;;;27.50;99.90;;;;;;5028341;28;20216;-95
2023/07/01 00:29:14;;;;;;;1.00;0.90;;;27.30;99.90;;;;;;5029256;28;20233;-94
2023/07/01 00:31:45;;;;;;;1.57;0.90;;;27.30;99.90;;;;;;5032320;28;20588;-95
2023/07/01 00:34:20;;;;;;;1.63;0.90;;;27.40;99.90;;;;;;5032547;28;20224;-94
2023/07/01 00:36:52;;;;;;;1.40;1.03;;;27.40;99.90;;;;;;5030327;28;20215;-94
2023/07/01 00:39:23;;;;;;;1.63;1.00;;;27.40;99.90;;;;;;5034748;28;20681;-88
2023/07/01 00:41:56;;;;;;;1.43;1.10;;;27.30;99.90;;;;;;5030351;28;20638;-90
2023/07/01 00:44:28;;;;;;;2.87;1.40;;;27.10;99.90;;;;;;5023314;28;20267;-88
2023/07/01 00:47:01;;;;;;;1.90;0.80;;;27.20;99.90;;;;;;5036168;28;20740;-88
2023/07/01 00:49:36;;;;;;;2.00;1.10;;;27.20;99.90;;;;;;5035015;28;20219;-90
2023/07/01 00:52:08;;;;;;;2.13;0.80;;;27.50;99.90;;;;;;5028295;28;20233;-90
2023/07/01 00:54:40;;;;;;;2.63;0.90;;;27.80;99.90;;;;;;5033929;28;20192;-90
2023/07/01 00:57:11;;;;;;;2.70;1.10;;;28.00;99.90;;;;;;5036543;28;20581;-89
2023/07/01 00:59:42;;;;;;;2.67;0.80;;;28.50;99.90;;;;;;5035325;28;20298;-88
2023/07/01 01:02:22;;;;;;;2.93;1.13;;;29.00;99.90;;;;;;5029639;28;20288;-88
2023/07/01 01:05:10;;;;;;;1.25;0.80;;;29.30;99.90;;;;;;5028437;28;20213;-89
2023/07/01 01:07:50;;;;;;;3.38;1.00;;;29.60;99.90;;;;;;5026630;28;20291;-89
2023/07/01 01:10:27;;;;;;;2.15;1.13;;;29.80;99.90;;;;;;5026129;28;20224;-88
2023/07/01 01:13:02;;;;;;;1.40;0.63;;;29.90;99.90;;;;;;5031153;28;20207;-94
2023/07/01 01:15:37;;;;;;;1.02;0.73;;;29.60;99.90;;;;;;5055321;28;20215;-95
2023/07/01 01:18:10;;;;;;;2.72;1.00;;;29.80;99.90;;;;;;5048528;28;20212;-95
2023/07/01 01:20:51;;;;;;;1.20;0.77;;;30.30;99.90;;;;;;5045066;28;20689;-94
2023/07/01 01:23:28;;;;;;;1.42;0.82;;;30.70;99.90;;;;;;5044896;28;20204;-94
2023/07/01 01:26:09;;;;;;;1.75;0.93;;;30.60;99.90;;;;;;5042430;28;20209;-95
2023/07/01 01:28:43;;;;;;;1.67;1.10;;;30.60;99.90;;;;;;5028637;28;20268;-95
2023/07/01 01:31:13;;;;;;;1.48;0.90;;;30.60;99.90;;;;;;5039204;28;20311;-96
2023/07/01 01:33:45;;;;;;;2.03;0.90;;;30.70;99.90;;;;;;5038216;28;20221;-94
2023/07/01 01:36:24;;;;;;;2.50;0.80;;;30.90;99.90;;;;;;5028168;28;20297;-94
2023/07/01 01:38:58;;;;;;;2.03;0.80;;;30.90;99.90;;;;;;5018915;28;20290;-94
2023/07/01 01:41:35;;;;;;;2.03;1.10;;;30.80;99.90;;;;;;5020875;28;20685;-94
2023/07/01 01:44:16;;;;;;;1.08;0.70;;;31.00;99.90;;;;;;5040133;28;20196;-96
2023/07/01 01:46:48;;;;;;;1.45;1.05;;;30.60;99.90;;;;;;5042353;28;20212;-94
2023/07/01 01:49:23;;;;;;;2.60;0.88;;;30.30;99.40;;;;;;5046658;28;20205;-94
2023/07/01 01:52:01;;;;;;;0.93;0.73;;;30.30;97.60;;;;;;5057596;28;20256;-93
2023/07/01 01:54:34;;;;;;;1.70;0.80;;;30.10;96.20;;;;;;5057142;28;20197;-93
2023/07/01 01:57:06;;;;;;;1.33;0.80;;;29.60;93.70;;;;;;5057411;28;20212;-93
2023/07/01 01:59:40;;;;;;;1.10;0.90;;;29.20;91.90;;;;;;5053292;28;20212;-93
2023/07/01 02:02:12;;;;;;;0.90;0.73;;;29.00;89.60;;;;;;5056714;28;20268;-96
2023/07/01 02:04:44;;;;;;;1.20;0.88;;;28.70;88.00;;;;;;5044773;28;20181;-94
2023/07/01 02:07:16;;;;;;;1.60;1.25;;;28.10;85.30;;;;;;5057693;28;20224;-94
2023/07/01 02:09:52;;;;;;;2.33;1.00;;;27.40;84.30;;;;;;5050214;28;20236;-94
2023/07/01 02:12:25;;;;;;;1.13;0.80;;;26.80;82.10;;;;;;5046002;28;20220;-93
2023/07/01 02:14:59;;;;;;;1.77;1.10;;;26.30;84.00;;;;;;5040218;28;20205;-94
2023/07/01 02:17:32;;;;;;;2.27;1.20;;;25.90;83.70;;;;;;5022195;28;20220;-95
2023/07/01 02:20:05;;;;;;;1.27;0.90;;;25.70;84.30;;;;;;5022362;28;20213;-95
2023/07/01 02:22:36;;;;;;;1.57;1.10;;;25.40;81.50;;;;;;5041545;28;20213;-95
2023/07/01 02:25:10;;;;;;;2.73;1.20;;;25.10;81.70;;;;;;5044691;28;20209;-95
2023/07/01 02:27:43;;;;;;;3.27;1.17;;;25.00;82.60;;;;;;5037425;28;20232;-95
2023/07/01 02:30:17;;;;;;;1.20;1.10;;;24.80;86.00;;;;;;5052469;28;20261;-95
2023/07/01 02:32:49;;;;;;;1.73;0.97;;;24.60;85.10;;;;;;5043190;28;20244;-95
2023/07/01 02:35:20;;;;;;;1.40;1.10;;;24.40;88.20;;;;;;5034910;28;20248;-96
2023/07/01 02:37:52;;;;;;;1.33;1.00;;;24.20;86.10;;;;;;5030956;28;20390;-95
2023/07/01 02:40:23;;;;;;;1.20;1.10;;;24.00;87.10;;;;;;5028188;28;20292;-95
2023/07/01 02:42:55;;;;;;;2.47;1.50;;;23.90;86.30;;;;;;5036420;28;20209;-95
2023/07/01 02:45:29;;;;;;;2.07;1.33;;;23.60;88.10;;;;;;5037617;28;20202;-94
2023/07/01 02:48:00;;;;;;;2.20;1.40;;;23.40;89.50;;;;;;5036561;28;20296;-94
2023/07/01 02:50:33;;;;;;;1.97;1.60;;;23.20;88.20;;;;;;5039677;28;20209;-95
2023/07/01 02:53:05;;;;;;;1.93;1.63;;;23.00;89.00;;;;;;5043224;28;20638;-95
2023/07/01 02:55:38;;;;;;;3.03;1.07;;;22.80;90.30;;;;;;5032313;28;20210;-94
2023/07/01 02:58:09;;;;;;;4.80;1.53;;;22.80;90.50;;;;;;5030698;28;20280;-94
2023/07/01 03:00:45;;;;;;;5.53;1.57;;;22.70;91.00;;;;;;5037223;28;20205;-93
2023/07/01 03:03:20;;;;;;;2.80;1.40;;;22.50;91.70;;;;;;5037398;28;20214;-93
2023/07/01 03:06:01;;;;;;;3.23;1.50;;;22.30;92.70;;;;;;5047017;28;20562;-93
2023/07/01 03:08:33;;;;;;;2.53;1.70;;;22.20;92.70;;;;;;5040390;28;20657;-93
2023/07/01 03:11:04;;;;;;;5.73;2.87;;;22.10;93.50;;;;;;5038339;28;20205;-93
2023/07/01 03:13:37;;;;;;;2.53;1.73;;;22.00;97.60;;;;;;5036766;28;20236;-93
2023/07/01 03:16:19;;;;;;;3.73;1.50;;;21.80;96.00;;;;;;5041613;28;20240;-92
2023/07/01 03:18:51;;;;;;;4.40;1.97;;;21.70;96.10;;;;;;5050878;28;20208;-92
2023/07/01 03:21:22;;;;;;;5.43;1.60;;;21.50;98.80;;;;;;5053376;28;20305;-92
2023/07/01 03:23:54;;;;;;;2.10;1.40;;;21.30;97.70;;;;;;5056642;28;20215;-94
2023/07/01 03:26:26;;;;;;;2.90;1.50;;;21.20;99.90;;;;;;5050618;28;20316;-94
2023/07/01 03:28:57;;;;;;;3.23;1.80;;;21.00;98.60;;;;;;5053450;28;20248;-94
2023/07/01 03:31:32;;;;;;;4.03;1.53;;;20.90;99.90;;;;;;5055522;28;20223;-95
2023/07/01 03:34:04;;;;;;;3.00;1.53;;;20.80;99.60;;;;;;5053164;28;20227;-95
2023/07/01 03:36:36;;;;;;;5.30;1.70;;;20.70;99.90;;;;;;4694380;28;10000479;-90
2023/07/01 03:39:09;;;;;;;5.50;2.10;;;20.60;99.90;;;;;;5032406;28;20243;-90
2023/07/01 03:41:41;;;;;;;5.57;2.27;;;20.50;99.90;;;;;;5029892;28;20214;-92
2023/07/01 03:44:13;;;;;;;2.60;1.40;;;20.40;99.90;;;;;;5017884;28;20202;-92
2023/07/01 03:46:47;;;;;;;2.87;1.67;;;20.00;99.90;;;;;;5027892;28;20212;-92
2023/07/01 03:49:20;;;;;;;3.30;1.77;;;19.90;99.90;;;;;;5031593;28;20260;-92
2023/07/01 03:52:06;;;;;;;2.73;1.50;;;19.70;99.90;;;;;;5024344;28;20252;-92
2023/07/01 03:54:37;;;;;;;4.70;1.70;;;19.50;99.90;;;;;;5021194;28;20201;-93
2023/07/01 03:57:08;;;;;;;3.47;1.47;;;19.40;99.90;;;;;;5035114;28;20208;-94
2023/07/01 03:59:39;;;;;;;4.37;1.50;;;19.30;99.90;;;;;;5033880;28;20570;-92
2023/07/01 04:02:13;;;;;;;3.83;1.67;;;19.20;99.90;;;;;;5034613;28;20272;-92
2023/07/01 04:04:45;;;;;;;5.33;2.00;;;19.10;99.90;;;;;;5035825;28;20201;-92
2023/07/01 04:07:21;;;;;;;3.17;1.70;;;18.90;99.90;;;;;;5022894;28;20240;-92
2023/07/01 04:09:52;;;;;;;3.07;1.57;;;18.90;99.90;;;;;;5021736;28;20216;-93
2023/07/01 04:12:24;;;;;;;3.33;1.83;;;18.80;99.90;;;;;;5024252;28;20304;-93
2023/07/01 04:14:55;;;;;;;5.10;1.73;;;18.70;99.90;;;;;;5024376;28;20638;-92
2023/07/01 04:17:30;;;;;;;2.87;1.80;;;18.60;99.90;;;;;;5034816;28;20205;-93
2023/07/01 04:20:03;;;;;;;5.00;1.83;;;18.50;99.90;;;;;;5030117;28;20224;-93
2023/07/01 04:22:34;;;;;;;3.93;1.37;;;18.40;99.90;;;;;;5032672;28;20209;-92
2023/07/01 04:25:06;;;;;;;3.17;1.83;;;18.30;99.90;;;;;;5027503;28;20209;-92
2023/07/01 04:27:42;;;;;;;5.97;1.77;;;18.20;99.90;;;;;;5033232;28;20263;-92
2023/07/01 04:30:14;;;;;;;4.87;1.87;;;18.10;99.90;;;;;;5034573;28;20232;-93
2023/07/01 04:32:47;;;;;;;4.40;1.80;;;18.10;99.90;;;;;;5030580;28;20331;-92
2023/07/01 04:35:19;;;;;;;7.23;2.10;;;18.10;99.90;;;;;;5034918;28;20265;-91
2023/07/01 04:37:50;;;;;;;5.50;2.10;;;18.10;99.90;;;;;;5029005;28;21062;-93
2023/07/01 04:40:21;;;;;;;4.57;2.03;;;18.00;99.90;;;;;;5033691;28;20619;-93
2023/07/01 04:42:52;;;;;;;2.53;1.60;;;18.00;99.90;;;;;;5028264;28;20243;-92
2023/07/01 04:45:23;;;;;;;4.13;1.90;;;18.00;99.90;;;;;;5026474;28;20205;-92
2023/07/01 04:47:57;;;;;;;3.87;1.93;;;18.00;99.90;;;;;;5031265;28;20211;-93
2023/07/01 04:50:29;;;;;;;3.60;1.87;;;18.00;99.90;;;;;;5019664;28;20213;-93
2023/07/01 04:53:03;;;;;;;5.10;1.70;;;18.00;99.90;;;;;;5021861;28;20225;-92
2023/07/01 04:55:35;;;;;;;2.73;1.50;;;18.00;99.90;;;;;;5027795;28;20262;-91
2023/07/01 04:58:07;;;;;;;4.57;2.17;;;18.00;99.90;;;;;;5033617;28;20216;-92
2023/07/01 05:00:38;;;;;;;5.60;1.90;;;18.00;99.90;;;;;;5033133;28;20219;-92
2023/07/01 05:03:12;;;;;;;3.13;1.83;;;18.00;99.90;;;;;;5032344;28;20208;-91
2023/07/01 05:05:44;;;;;;;5.07;1.90;;;18.00;99.90;;;;;;5030119;28;20217;-91
2023/07/01 05:08:15;;;;;;;5.30;2.30;;;18.10;99.90;;;;;;5024168;28;20221;-91
2023/07/01 05:10:47;;;;;;;3.70;1.60;;;18.10;99.90;;;;;;5019970;28;20209;-89
2023/07/01 05:13:19;;;;;;;3.90;1.83;;;18.10;99.90;;;;;;5012261;28;20714;-89
2023/07/01 05:15:50;;;;;;;3.30;2.10;;;18.00;99.90;;;;;;5024889;28;20216;-89
2023/07/01 05:18:24;;;;;;;5.13;2.27;;;18.00;99.90;;;;;;5017538;28;20224;-88
2023/07/01 05:20:55;;;;;;;3.60;1.97;;;18.10;99.90;;;;;;5026332;28;20216;-91
2023/07/01 05:23:27;;;;;;;3.33;1.80;;;18.00;99.90;;;;;;5030273;28;20205;-89
2023/07/01 05:25:59;;;;;;;4.93;1.90;;;18.00;99.90;;;;;;5036549;28;20296;-89
2023/07/01 05:28:30;;;;;;;4.33;2.13;;;17.90;99.90;;;;;;5017556;28;20197;-89
2023/07/01 05:31:01;;;;;;;2.93;1.70;;;17.90;99.90;;;;;;5033627;28;20212;-90
2023/07/01 05:33:34;;;;;;;2.67;1.93;;;17.90;99.90;;;;;;5033582;28;20244;-89
2023/07/01 05:36:05;;;;;;;5.03;2.20;;;17.80;99.90;;;;;;5026532;28;20220;-89
2023/07/01 05:38:37;;;;;;;8.30;2.00;;;17.80;99.90;;;;;;5037587;28;20216;-90
2023/07/01 05:41:09;;;;;;;6.17;2.43;;;17.80;99.90;;;;;;5025162;28;20208;-88
2023/07/01 05:43:40;;;;;;;4.60;2.20;;;17.80;99.90;;;;;;5032509;28;20209;-90
2023/07/01 05:46:11;;;;;;;3.70;2.00;;;17.80;99.90;;;;;;5025654;28;20221;-90
2023/07/01 05:48:45;;;;;;;3.90;1.83;;;17.80;99.90;;;;;;5044880;28;20217;-90
2023/07/01 05:51:16;;;;;;;5.50;2.37;;;17.80;99.90;;;;;;5048980;28;20186;-90
2023/07/01 05:53:48;;;;;;;3.37;2.00;;;17.80;99.90;;;;;;5038866;28;20292;-90
2023/07/01 05:56:19;;;;;;;5.07;2.20;;;17.70;99.90;;;;;;5037900;28;20201;-89
2023/07/01 05:58:50;;;;;;;6.83;2.10;;;17.70;99.90;;;;;;5035870;28;20295;-89
2023/07/01 06:01:22;;;;;;;9.03;2.60;;;17.70;99.90;;;;;;5037104;28;20672;-89
2023/07/01 06:03:55;;;;;;;6.33;2.57;;;17.80;99.90;;;;;;5036418;28;20252;-88
2023/07/01 06:06:27;;;;;;;5.50;2.57;;;17.80;99.90;;;;;;5036441;28;20239;-88
2023/07/01 06:08:59;;;;;;;3.80;1.80;;;17.80;99.90;;;;;;5034054;28;20201;-89
2023/07/01 06:11:31;;;;;;;8.80;2.30;;;17.70;99.90;;;;;;5016961;28;20719;-89
2023/07/01 06:14:03;;;;;;;4.87;2.60;;;17.70;99.90;;;;;;5031607;28;20237;-89
2023/07/01 06:16:34;;;;;;;4.23;2.43;;;17.60;99.90;;;;;;5023016;28;20213;-89
2023/07/01 06:19:07;;;;;;;4.40;2.40;;;17.60;99.90;;;;;;5034604;28;20674;-89
2023/07/01 06:21:39;;;;;;;7.90;2.50;;;17.50;99.90;;;;;;5035251;28;20215;-89
2023/07/01 06:24:10;;;;;;;4.37;2.33;;;17.50;99.90;;;;;;5035681;28;20222;-89
2023/07/01 06:26:42;;;;;;;4.17;2.40;;;17.40;99.90;;;;;;5031770;28;20213;-91
2023/07/01 06:29:13;;;;;;;6.20;2.30;;;17.40;99.90;;;;;;5027453;28;20227;-91
2023/07/01 06:31:45;;;;;;;5.20;2.33;;;17.40;99.90;;;;;;5036272;28;20220;-91
2023/07/01 06:34:19;;;;;;;4.20;2.33;;;17.40;99.90;;;;;;5035530;28;20248;-90
2023/07/01 06:36:50;;;;;;;4.17;2.20;;;17.30;99.90;;;;;;5032797;28;20213;-91
2023/07/01 06:39:22;;;;;;;5.10;2.03;;;17.40;99.90;;;;;;5034574;28;20284;-91
2023/07/01 06:41:54;;;;;;;4.33;2.20;;;17.40;99.90;;;;;;5033077;28;20611;-92
2023/07/01 06:44:25;;;;;;;4.63;2.30;;;17.40;99.90;;;;;;5033689;28;20700;-90
2023/07/01 06:46:57;;;;;;;3.83;2.00;;;17.40;99.90;;;;;;5035407;28;20217;-91
2023/07/01 06:49:31;;;;;;;6.23;2.30;;;17.30;99.90;;;;;;5025791;28;20677;-91
2023/07/01 06:52:03;;;;;;;3.80;2.07;;;17.40;99.90;;;;;;5027790;28;20216;-90
2023/07/01 06:54:34;;;;;;;3.60;1.83;;;17.40;99.90;;;;;;5027253;28;20233;-90
2023/07/01 06:57:06;;;;;;;3.80;2.30;;;17.40;99.90;;;;;;5033553;28;20209;-91
2023/07/01 06:59:37;;;;;;;6.70;2.60;;;17.30;99.90;;;;;;5033695;28;20216;-91
2023/07/01 07:02:09;;;;;;;3.13;2.00;;;17.40;99.90;;;;;;5024948;28;20231;-91
2023/07/01 07:04:43;;;;;;;8.57;2.40;;;17.40;99.90;;;;;;5020781;28;20220;-90
2023/07/01 07:07:15;;;;;;;4.33;2.27;;;17.30;99.90;;;;;;5035109;28;20217;-90
2023/07/01 07:09:47;;;;;;;4.60;1.80;;;17.20;99.90;;;;;;5033758;28;20661;-92
2023/07/01 07:12:18;;;;;;;3.83;2.10;;;17.10;99.90;;;;;;5019454;28;20195;-91
2023/07/01 07:14:50;;;;;;;4.17;2.13;;;17.10;99.90;;;;;;5033087;28;20694;-91
2023/07/01 07:17:22;;;;;;;8.77;2.50;;;17.00;99.90;;;;;;5035026;28;20306;-92
2023/07/01 07:19:55;;;;;;;6.50;2.30;;;16.90;99.90;;;;;;5033079;28;20221;-91
2023/07/01 07:22:26;;;;;;;4.70;2.40;;;16.90;99.90;;;;;;5033670;28;20283;-92
2023/07/01 07:24:59;;;;;;;9.03;2.30;;;16.90;99.90;;;;;;5031362;28;20217;-91
2023/07/01 07:27:30;;;;;;;4.37;1.97;;;16.80;99.90;;;;;;5034390;28;20291;-95
2023/07/01 07:30:02;;;;;;;5.13;2.00;;;16.80;99.90;;;;;;5035043;28;20209;-91
2023/07/01 07:32:34;;;;;;;2.87;1.70;;;16.90;99.90;;;;;;5031499;28;20231;-90
2023/07/01 07:35:09;;;;;;;4.67;2.63;;;16.90;99.90;;;;;;5031990;28;20320;-90
2023/07/01 07:37:40;;;;;;;5.63;2.57;;;16.90;99.90;;;;;;5038195;28;20210;-91
2023/07/01 07:40:13;;;;;;;4.97;2.07;;;16.90;99.90;;;;;;5027156;28;20207;-91
2023/07/01 07:42:45;;;;;;;4.30;2.20;;;17.00;99.90;;;;;;5036103;28;20208;-91
2023/07/01 07:45:19;;;;;;;6.90;2.53;;;17.00;99.90;;;;;;5030203;28;20239;-91
2023/07/01 07:47:50;;;;;;;5.43;2.03;;;16.90;99.90;;;;;;5035415;28;20296;-92
2023/07/01 07:50:24;;;;;;;4.63;2.00;;;16.90;99.90;;;;;;5023681;28;20217;-91
2023/07/01 07:52:56;;;;;;;3.80;2.17;;;16.80;99.90;;;;;;5045072;28;20276;-91
2023/07/01 07:55:33;;;;;;;4.27;2.30;;;16.80;99.90;;;;;;5052553;28;20229;-92
2023/07/01 07:58:04;;;;;;;7.43;2.10;;;16.80;99.90;;;;;;5051191;28;20220;-90
2023/07/01 08:00:35;;;;;;;4.47;2.00;;;16.70;99.90;;;;;;5037667;28;20209;-92
2023/07/01 08:03:06;;;;;;;4.73;2.20;;;16.60;99.90;;;;;;5038065;28;20292;-91
2023/07/01 08:05:40;;;;;;;6.90;2.70;;;16.50;99.90;;;;;;5049549;28;20200;-91
2023/07/01 08:08:11;;;;;;;5.73;2.30;;;16.50;99.90;;;;;;5053094;28;20264;-91
2023/07/01 08:10:45;;;;;;;3.23;2.10;;;16.50;99.90;;;;;;5043512;28;20225;-89
2023/07/01 08:13:17;;;;;;;4.03;2.17;;;16.50;99.90;;;;;;5034796;28;20640;-90
2023/07/01 08:15:49;;;;;;;4.20;1.97;;;16.40;99.90;;;;;;5033536;28;20241;-91
2023/07/01 08:18:21;;;;;;;5.17;2.23;;;16.30;99.90;;;;;;5034623;28;20231;-93
2023/07/01 08:20:55;;;;;;;6.87;1.97;;;16.20;99.90;;;;;;5034852;28;20208;-91
2023/07/01 08:23:26;;;;;;;5.47;2.43;;;16.20;99.90;;;;;;5035317;28;20247;-93
2023/07/01 08:25:58;;;;;;;4.50;2.13;;;16.20;99.90;;;;;;5033859;28;20268;-90
2023/07/01 08:28:33;;;;;;;6.83;2.60;;;16.10;99.90;;;;;;5028599;28;20201;-91
2023/07/01 08:31:06;;;;;;;5.67;1.83;;;16.10;99.90;;;;;;5029470;28;20284;-90
2023/07/01 08:33:38;;;;;;;4.70;1.77;;;16.00;99.90;;;;;;5019930;28;20209;-90
2023/07/01 08:36:11;;;;;;;5.43;2.40;;;16.00;99.90;;;;;;5013996;28;20233;-90
2023/07/01 08:38:43;;;;;;;4.97;2.23;;;15.90;99.90;;;;;;5025943;28;20200;-91
2023/07/01 08:41:17;;;;;;;3.20;1.80;;;15.90;99.90;;;;;;5032326;28;20205;-91
2023/07/01 08:43:50;;;;;;;6.83;2.23;;;15.80;99.90;;;;;;5026450;28;20214;-90
2023/07/01 08:46:23;;;;;;;6.23;1.73;;;15.80;99.90;;;;;;5024320;28;20212;-91
2023/07/01 08:48:57;;;;;;;5.93;2.20;;;15.80;99.90;;;;;;5032672;28;20751;-90
2023/07/01 08:51:33;;;;;;;6.77;1.97;;;15.80;99.90;;;;;;5032915;28;20683;-90
2023/07/01 08:54:05;;;;;;;4.97;2.00;;;15.80;99.90;;;;;;5033909;28;20755;-91
2023/07/01 08:56:36;;;;;;;8.10;2.23;;;15.70;99.90;;;;;;5030889;28;20240;-90
2023/07/01 08:59:08;;;;;;;7.43;2.10;;;15.70;99.90;;;;;;5032784;28;20573;-91
2023/07/01 09:01:41;;;;;;;5.93;2.30;;;15.60;99.90;;;;;;5037596;28;20208;-90
2023/07/01 09:04:14;;;;;;;5.93;2.10;;;15.50;99.90;;;;;;5022017;28;20754;-91
2023/07/01 09:06:48;;;;;;;5.73;2.13;;;15.50;99.90;;;;;;5036969;28;20232;-90
2023/07/01 09:09:19;;;;;;;5.50;1.87;;;15.50;99.90;;;;;;5028880;28;20224;-90
2023/07/01 09:11:51;;;;;;;4.73;1.77;;;15.40;99.90;;;;;;5035345;28;20301;-91
2023/07/01 09:14:22;;;;;;;7.07;2.00;;;15.30;99.90;;;;;;5040538;28;20738;-92
2023/07/01 09:16:54;;;;;;;6.27;2.13;;;15.20;99.90;;;;;;5040625;28;20230;-92
2023/07/01 09:19:25;;;;;;;6.40;2.03;;;15.20;99.90;;;;;;5036783;28;20208;-93
2023/07/01 09:22:10;;;;;;;5.83;1.63;;;15.10;99.90;;;;;;5023707;28;20613;-92
2023/07/01 09:24:42;;;;;;;4.87;1.80;;;15.10;99.90;;;;;;5036885;28;20235;-92
2023/07/01 09:27:13;;;;;;;7.10;1.87;;;15.00;99.90;;;;;;5018861;28;20218;-92
2023/07/01 09:29:44;;;;;;;6.20;2.20;;;15.00;99.90;;;;;;5019074;28;20209;-92
2023/07/01 09:32:28;;;;;;;4.17;1.67;;;15.00;99.90;;;;;;5036402;28;20215;-92
2023/07/01 09:35:01;;;;;;;4.97;1.90;;;15.00;99.90;;;;;;5025530;28;20732;-90
2023/07/01 09:37:35;;;;;;;7.97;2.13;;;14.90;99.90;;;;;;5032028;28;20303;-92
2023/07/01 09:40:21;;;;;;;5.47;1.97;;;14.90;99.90;;;;;;5035304;28;20295;-90
2023/07/01 09:42:53;;;;;;;9.63;2.57;;;14.90;99.90;;;;;;5027461;28;20292;-89
2023/07/01 09:45:25;;;;;;;6.20;2.27;;;14.80;99.90;;;;;;5033251;28;20639;-90
2023/07/01 09:47:57;;;;;;;6.10;2.10;;;14.70;99.90;;;;;;5030526;28;20999;-89
2023/07/01 09:50:30;;;;;;;6.73;2.20;;;14.70;99.90;;;;;;5036501;28;20205;-91
2023/07/01 09:53:05;;;;;;;4.60;2.13;;;14.70;99.90;;;;;;5020299;28;20251;-94
2023/07/01 09:55:38;;;;;;;8.10;2.27;;;14.70;99.90;;;;;;5022420;28;20260;-95
2023/07/01 09:58:10;;;;;;;4.23;1.90;;;14.60;99.90;;;;;;5045570;28;20221;-95
2023/07/01 10:00:42;;;;;;;7.00;2.17;;;14.60;99.90;;;;;;5032126;28;20233;-96
2023/07/01 10:03:15;;;;;;;6.07;1.77;;;14.50;99.90;;;;;;5025125;28;20270;-95
2023/07/01 10:05:52;;;;;;;5.43;1.73;;;14.50;99.90;;;;;;5041274;28;20216;-96
2023/07/01 10:08:28;;;;;;;6.03;1.90;;;14.50;99.90;;;;;;5058251;28;20260;-96
2023/07/01 10:11:06;;;;;;;6.73;2.10;;;14.60;99.90;;;;;;5040672;28;21390;-95
2023/07/01 10:13:44;;;;;;;5.43;2.20;;;14.60;99.90;;;;;;5052703;28;20209;-96
2023/07/01 10:16:17;;;;;;;5.40;1.80;;;14.60;99.90;;;;;;5052337;28;20263;-96
2023/07/01 10:18:48;;;;;;;5.33;1.80;;;14.70;99.90;;;;;;5043313;28;20205;-96
2023/07/01 10:21:33;;;;;;;4.30;1.87;;;14.70;99.90;;;;;;5045458;28;20217;-95
2023/07/01 10:24:08;;;;;;;5.93;1.93;;;14.70;99.90;;;;;;5054097;28;20193;-92
2023/07/01 10:26:46;;;;;;;4.67;1.70;;;14.70;99.90;;;;;;5053686;28;20268;-93
2023/07/01 10:29:56;;;;;;;5.23;1.70;;;14.80;99.90;;;;;;5045691;28;20307;-93
2023/07/01 10:32:35;;;;;;;4.43;1.60;;;14.80;99.90;;;;;;5020039;28;20229;-95
2023/07/01 10:35:15;;;;;;;4.27;1.70;;;14.80;99.90;;;;;;5039143;28;20209;-94
2023/07/01 10:38:10;;;;;;;2.30;1.27;;;14.80;99.90;;;;;;5025872;28;20307;-93
2023/07/01 10:40:47;;;;;;;5.13;1.63;;;14.80;99.90;;;;;;5035536;28;20304;-93
2023/07/01 10:43:27;;;;;;;5.03;1.67;;;14.80;99.90;;;;;;5036231;28;20220;-93
2023/07/01 10:46:15;;;;;;;5.30;2.03;;;14.70;99.90;;;;;;5037652;28;20208;-94
2023/07/01 10:49:07;;;;;;;6.67;1.53;;;14.80;99.90;;;;;;5015400;28;20198;-93
2023/07/01 10:52:07;;;;;;;3.43;1.50;;;14.80;99.90;;;;;;5035533;28;20299;-94
2023/07/01 10:54:40;;;;;;;3.37;1.30;;;14.70;99.90;;;;;;5027673;28;20202;-94
2023/07/01 10:57:18;;;;;;;2.60;1.40;;;14.70;99.90;;;;;;5046614;28;20220;-94
2023/07/01 10:59:49;;;;;;;7.10;1.80;;;14.80;99.90;;;;;;5053456;28;20207;-94
2023/07/01 11:02:41;;;;;;;3.03;1.30;;;14.70;99.90;;;;;;5027560;28;20211;-92
2023/07/01 11:05:12;;;;;;;4.67;1.63;;;14.70;99.90;;;;;;5038544;28;20646;-92
2023/07/01 11:07:45;;;;;;;2.77;1.33;;;14.60;99.90;;;;;;5037481;28;20216;-91
2023/07/01 11:10:17;;;;;;;6.93;1.97;;;14.60;99.90;;;;;;5033955;28;20205;-92
2023/07/01 11:12:51;;;;;;;3.60;1.40;;;14.50;99.90;;;;;;5029589;28;20267;-92
2023/07/01 11:15:22;;;;;;;6.77;1.30;;;14.40;99.90;;;;;;5032033;28;20205;-90
2023/07/01 11:17:56;;;;;;;7.10;1.60;;;14.40;99.90;;;;;;5020495;28;20599;-94
2023/07/01 11:20:27;;;;;;;4.47;1.50;;;14.30;99.90;;;;;;5052755;28;20205;-92
2023/07/01 11:22:59;;;;;;;4.40;1.30;;;14.30;99.90;;;;;;5053351;28;20205;-93
2023/07/01 11:25:32;;;;;;;4.93;1.67;;;14.20;99.90;;;;;;5040831;28;20684;-91
2023/07/01 11:28:06;;;;;;;3.87;1.60;;;14.20;99.90;;;;;;5033316;28;20232;-93
2023/07/01 11:30:38;;;;;;;3.50;1.33;;;14.20;99.90;;;;;;5032139;28;20213;-92
2023/07/01 11:33:15;;;;;;;3.53;1.33;;;14.10;99.90;;;;;;5046279;28;20216;-95
2023/07/01 11:35:55;;;;;;;3.60;1.60;;;14.10;99.90;;;;;;5046943;28;20227;-93
2023/07/01 11:38:29;;;;;;;8.80;1.67;;;14.10;99.90;;;;;;5015983;28;20272;-91
2023/07/01 11:41:00;;;;;;;5.30;1.50;;;14.00;99.90;;;;;;5032201;28;20226;-93
2023/07/01 11:43:34;;;;;;;8.40;1.40;;;14.00;99.90;;;;;;5036593;28;20274;-92
2023/07/01 11:46:05;;;;;;;6.83;1.73;;;14.00;99.90;;;;;;5035881;28;20213;-91
2023/07/01 11:48:37;;;;;;;7.10;1.90;;;13.90;99.90;;;;;;5026906;28;20228;-88
2023/07/01 11:51:09;;;;;;;9.23;1.93;;;13.80;99.90;;;;;;5015481;28;20224;-88
2023/07/01 11:53:57;;;;;;;4.30;1.67;;;13.80;99.90;;;;;;5027962;28;20626;-89
2023/07/01 11:56:29;;;;;;;3.27;1.37;;;13.70;99.90;;;;;;5029723;28;20229;-89
2023/07/01 11:59:03;;;;;;;5.07;2.00;;;13.60;99.90;;;;;;5013990;28;20252;-88
2023/07/01 12:01:37;;;;;;;6.00;1.60;;;13.60;99.90;;;;;;5021730;28;20205;-89
2023/07/01 12:04:19;;;;;;;4.30;1.40;;;13.60;99.90;;;;;;5034747;28;20295;-88
2023/07/01 12:06:51;;;;;;;4.50;1.40;;;13.50;99.90;;;;;;5035007;28;20281;-88
2023/07/01 12:09:32;;;;;;;4.97;1.50;;;13.50;99.90;;;;;;5033348;28;20230;-88
2023/07/01 12:12:03;;;;;;;3.37;1.47;;;13.50;99.90;;;;;;5033080;28;20193;-89
2023/07/01 12:14:38;;;;;;;5.30;1.40;;;13.40;99.90;;;;;;5017141;28;20218;-89
2023/07/01 12:17:10;;;;;;;7.43;2.10;;;13.40;99.90;;;;;;5025495;28;20252;-89
2023/07/01 12:19:41;;;;;;;3.83;1.43;;;13.30;99.90;;;;;;5035346;28;20728;-89
2023/07/01 12:22:12;;;;;;;6.57;1.63;;;13.30;99.90;;;;;;5029609;28;20234;-88
2023/07/01 12:24:44;;;;;;;5.43;1.83;;;13.30;99.90;;;;;;5032638;28;20223;-88
2023/07/01 12:27:16;;;;;;;5.23;1.73;;;13.20;99.90;;;;;;5035671;28;20205;-89
2023/07/01 12:29:52;;;;;;;3.53;1.30;;;13.20;99.90;;;;;;5013167;28;20205;-90
2023/07/01 12:32:24;;;;;;;7.27;1.70;;;13.20;99.90;;;;;;5036913;28;20215;-90
2023/07/01 12:34:56;;;;;;;4.47;1.40;;;13.10;99.90;;;;;;5023927;28;20217;-90
2023/07/01 12:37:29;;;;;;;6.53;1.50;;;13.10;99.90;;;;;;5043532;28;20212;-90
2023/07/01 12:40:03;;;;;;;7.50;1.60;;;13.10;99.90;;;;;;5053691;28;20213;-90
2023/07/01 12:42:36;;;;;;;4.17;1.40;;;13.10;99.90;;;;;;5048538;28;20228;-91
2023/07/01 12:45:12;;;;;;;3.57;1.30;;;13.10;99.90;;;;;;5036155;28;20213;-90
2023/07/01 12:47:45;;;;;;;4.63;1.50;;;13.10;99.90;;;;;;5035082;28;20724;-90
2023/07/01 12:50:17;;;;;;;5.77;2.00;;;13.10;99.90;;;;;;5034379;28;20646;-89
2023/07/01 12:52:53;;;;;;;4.30;1.40;;;13.10;99.90;;;;;;5035960;28;20211;-90
2023/07/01 12:55:25;;;;;;;4.10;1.80;;;13.00;99.90;;;;;;5029039;28;20216;-89
2023/07/01 12:57:56;;;;;;;7.07;1.77;;;13.00;99.90;;;;;;5024991;28;20229;-89
2023/07/01 13:00:30;;;;;;;7.57;1.70;;;13.10;99.90;;;;;;5013827;28;20236;-90
2023/07/01 13:03:01;;;;;;;8.50;2.17;;;13.10;99.90;;;;;;5017590;28;20300;-90
2023/07/01 13:05:34;;;;;;;8.83;1.93;;;13.10;99.90;;;;;;5032626;28;20235;-91
2023/07/01 13:08:14;;;;;;;5.63;1.40;;;13.10;99.90;;;;;;5031663;28;20205;-91
2023/07/01 13:10:45;;;;;;;6.73;1.60;;;13.10;99.90;;;;;;5032239;28;20207;-91
2023/07/01 13:13:17;;;;;;;7.87;1.90;;;13.00;99.90;;;;;;5029078;28;20209;-90
2023/07/01 13:15:51;;;;;;;5.43;1.87;;;13.10;99.90;;;;;;5033909;28;20215;-91
2023/07/01 13:18:23;;;;;;;4.13;1.90;;;13.00;99.90;;;;;;5024770;28;20233;-91